Autopride — CQQE — position and weather

sailwx.info

Track history (hours):
 
Tides and Currents Weather Stations Pressure Air Temp Water Temp Dewpoint Dewpoint Depression Visibility Wind Speed Wind Dir Waves Ship Positions

Autopride

Last reported at 2016-Jun-28 09:20 UTC. Time now 2016-Jun-28 09:52 UTC.
Position N 44°22' W 002°41'.

Length 125 m; draft 4.9 m.

Type: Cargo ship. MMSI: 255801560.

Date/timePositionNaut miles runAvg speedWind from/ knotsBaromVisibWave heightAir tempDewpointWater temp
2016-Jun-28 09:20N 44°22' W 002°41'9114.8
2016-Jun-28 03:11N 45°43' W 003°40'1015.5
2016-Jun-28 02:31N 45°52' W 003°47'1615.5
2016-Jun-28 01:29N 46°06' W 003°58'1715.7
2016-Jun-28 00:24N 46°21' W 004°09'1416.3
2016-Jun-27 23:32N 46°34' W 004°19'1716.4
2016-Jun-27 22:32N 46°49' W 004°30'1616.4
2016-Jun-27 21:33N 47°03' W 004°41'1616.3
2016-Jun-27 20:33N 47°17' W 004°52'1715.9
2016-Jun-27 19:31N 47°32' W 005°03'1515.7
2016-Jun-27 18:33N 47°45' W 005°14'14012.3
2016-Jun-27 07:12N 49°46' W 003°26'1117.5
2016-Jun-27 06:34N 49°52' W 003°10'1818.1
2016-Jun-27 05:34N 49°59' W 002°45'2118.3
2016-Jun-27 04:24N 50°06' W 002°13'1517.4
2016-Jun-27 03:31N 50°10' W 001°51'3015.2
2016-Jun-27 01:31N 50°18' W 001°05'2813.8
2016-Jun-26 23:28N 50°27' W 000°23'1415.4
2016-Jun-26 22:33N 50°31' W 000°02'1616.5
2016-Jun-26 21:34N 50°35' E 000°24'3416.8
2016-Jun-26 19:31N 50°53' E 001°09'1515.6
2016-Jun-26 18:33N 51°03' E 001°27'1414.3
2016-Jun-26 17:34N 51°12' E 001°45'1514.7
2016-Jun-26 16:34N 51°24' E 001°59'1514.8
2016-Jun-26 15:33N 51°21' E 002°22'1414.4
2016-Jun-26 14:33N 51°22' E 002°45'1615.6
2016-Jun-26 13:33N 51°23' E 003°10'3 3.5
2016-Jun-26 12:33N 51°20' E 003°13'1 0.6
2016-Jun-26 11:33N 51°19' E 003°13'0 0.0
2016-Jun-26 10:33N 51°19' E 003°13'0 0.0
2016-Jun-26 09:33N 51°19' E 003°13'0 0.0
2016-Jun-26 08:33N 51°19' E 003°13'0 0.0
2016-Jun-26 07:33N 51°19' E 003°13'0 0.0
2016-Jun-26 06:33N 51°19' E 003°13'0 0.0
2016-Jun-26 05:33N 51°19' E 003°13'0 0.0
2016-Jun-26 04:33N 51°19' E 003°13'0 0.0
2016-Jun-26 03:33N 51°19' E 003°13'1 0.5
2016-Jun-26 02:33N 51°20' E 003°13'3 2.9
2016-Jun-26 01:34N 51°22' E 003°11'1414.0
2016-Jun-26 00:33N 51°22' E 002°48'9 9.0
2016-Jun-25 23:33N 51°22' E 002°34'9 8.7
2016-Jun-25 22:33N 51°19' E 002°21'9 9.5
2016-Jun-25 21:33N 51°14' E 002°07'8 8.1
2016-Jun-25 20:33N 51°10' E 001°56'8 7.7
2016-Jun-25 19:33N 51°06' E 001°46'9 8.6
2016-Jun-25 18:33N 51°00' E 001°36'9 9.4
2016-Jun-25 17:33N 50°52' E 001°28'10 9.9
2016-Jun-25 16:31N 50°42' E 001°23'39 9.7
2016-Jun-25 12:33N 50°24' E 000°29'1211.7
2016-Jun-25 11:33N 50°21' E 000°12'1111.5
2016-Jun-25 10:33N 50°18' W 000°06'1211.0
2016-Jun-25 09:30N 50°15' W 000°23'1010.3
2016-Jun-25 08:33N 50°12' W 000°38'9 8.9
2016-Jun-25 07:31N 50°10' W 000°52'7 7.7
2016-Jun-25 06:33N 50°08' W 001°03'7 6.8
2016-Jun-25 05:33N 50°06' W 001°13'44 8.1
2016-Jun-25 00:08N 49°55' W 002°19'710.6
2016-Jun-24 23:28N 49°53' W 002°30'1010.6
2016-Jun-24 22:33N 49°51' W 002°44'1010.4
2016-Jun-24 21:33N 49°47' W 002°59'1110.8
2016-Jun-24 20:33N 49°41' W 003°13'79 9.6
2016-Jun-24 12:21N 49°01' W 004°57'810.3
2016-Jun-24 11:34N 48°56' W 005°08'1514.9
2016-Jun-24 10:33N 48°49' W 005°28'10414.4
2016-Jun-24 03:20N 47°10' W 004°39'1616.5
2016-Jun-24 02:23N 46°56' W 004°29'1416.5
2016-Jun-24 01:32N 46°43' W 004°20'1616.3
2016-Jun-24 00:34N 46°29' W 004°10'1716.6
2016-Jun-23 23:33N 46°14' W 003°59'1716.6
2016-Jun-23 22:33N 45°59' W 003°49'16016.0
2016-Jun-23 12:33N 43°36' W 002°06'35 2.8
2016-Jun-23 00:21N 44°07' W 002°29'12015.4
2016-Jun-22 16:33N 45°53' W 003°48'3915.7
2016-Jun-22 14:05N 46°27' W 004°13'2615.6
2016-Jun-22 12:24N 46°50' W 004°31'1315.1
2016-Jun-22 11:33N 47°01' W 004°42'1615.2
2016-Jun-22 10:31N 47°13' W 004°56'1515.1
2016-Jun-22 09:31N 47°26' W 005°08'1616.1
2016-Jun-22 08:32N 47°41' W 005°14'1716.2
2016-Jun-22 07:29N 47°57' W 005°23'1516.2
2016-Jun-22 06:33N 48°11' W 005°33'12212.9
2016-Jun-21 21:04N 49°44' W 003°32'714.3
2016-Jun-21 20:34N 49°47' W 003°23'1413.7
2016-Jun-21 19:34N 49°54' W 003°04'1413.6
2016-Jun-21 18:34N 49°59' W 002°45'1514.4
2016-Jun-21 17:32N 50°04' W 002°23'5617.5
2016-Jun-21 14:20N 50°21' W 000°60'1417.9
2016-Jun-21 13:33N 50°24' W 000°38'1716.8
2016-Jun-21 12:34N 50°29' W 000°13'1515.4
2016-Jun-21 11:33N 50°34' E 000°10'1514.5
2016-Jun-21 10:32N 50°38' E 000°32'3315.3
2016-Jun-21 08:24N 50°57' E 001°14'1618.5
2016-Jun-21 07:33N 51°07' E 001°33'2914.8
2016-Jun-21 05:34N 51°21' E 002°14'1615.7
2016-Jun-21 04:33N 51°23' E 002°39'1514.6
2016-Jun-21 03:33N 51°22' E 003°02'7 6.8
2016-Jun-21 02:33N 51°20' E 003°13'1 0.6
2016-Jun-21 01:33N 51°19' E 003°13'0 0.0
2016-Jun-21 00:33N 51°19' E 003°13'0 0.0
2016-Jun-20 23:33N 51°19' E 003°13'0 0.0
2016-Jun-20 22:32N 51°19' E 003°13'0 0.0
2016-Jun-20 21:32N 51°19' E 003°13'0 0.0
2016-Jun-20 20:32N 51°19' E 003°13'0 0.0
2016-Jun-20 19:29N 51°19' E 003°13'0 0.0
2016-Jun-20 18:32N 51°19' E 003°13'0 0.0
2016-Jun-20 17:32N 51°19' E 003°13'0 0.0
2016-Jun-20 16:32N 51°19' E 003°13'1 0.7
2016-Jun-20 15:33N 51°20' E 003°13'1 1.1
2016-Jun-20 14:33N 51°21' E 003°12'7 7.3
2016-Jun-20 13:33N 51°22' E 003°00'9 8.6
2016-Jun-20 12:33N 51°22' E 002°47'6 6.5
2016-Jun-20 11:33N 51°22' E 002°36'6 6.0
2016-Jun-20 10:33N 51°21' E 002°27'6 6.3
2016-Jun-20 09:33N 51°18' E 002°18'6 5.8
2016-Jun-20 08:33N 51°15' E 002°10'5 5.0
2016-Jun-20 07:33N 51°13' E 002°03'10 9.9
2016-Jun-20 06:34N 51°08' E 001°49'1515.0
2016-Jun-20 05:33N 50°57' E 001°32'1515.0
2016-Jun-20 04:33N 50°44' E 001°22'4214.1
2016-Jun-20 01:33N 50°23' E 000°24'1514.5
2016-Jun-20 00:31N 50°19' E 000°01'1414.8
2016-Jun-19 23:34N 50°15' W 000°20'8917.4
2016-Jun-19 18:26N 49°52' W 002°34'1517.3
2016-Jun-19 17:33N 49°48' W 002°57'1716.8
2016-Jun-19 16:33N 49°39' W 003°19'9116.9
2016-Jun-19 11:09N 48°52' W 005°19'1016.2
2016-Jun-19 10:33N 48°48' W 005°32'4914.3
2016-Jun-19 07:09N 47°60' W 005°17'915.5
2016-Jun-19 06:33N 47°51' W 005°11'1716.1
2016-Jun-19 05:30N 47°36' W 005°00'5115.9
2016-Jun-19 02:16N 46°51' W 004°25'1216.0
2016-Jun-19 01:30N 46°40' W 004°17'  
Track history (hours):
 
Tides and Currents Weather Stations Pressure Air Temp Water Temp Dewpoint Dewpoint Depression Visibility Wind Speed Wind Dir Waves Ship Positions

Autopride

Last reported at 2016-Jun-28 09:20 UTC. Time now 2016-Jun-28 09:52 UTC.
Position N 44°22' W 002°41'.

Length 125 m; draft 4.9 m.

Type: Cargo ship. MMSI: 255801560.

Date/timePositionNaut miles runAvg speedWind from/ knotsBaromVisibWave heightAir tempDewpointWater temp
2016-Jun-28 09:20N 44°22' W 002°41'9114.8
2016-Jun-28 03:11N 45°43' W 003°40'1015.5
2016-Jun-28 02:31N 45°52' W 003°47'1615.5
2016-Jun-28 01:29N 46°06' W 003°58'1715.7
2016-Jun-28 00:24N 46°21' W 004°09'1416.3
2016-Jun-27 23:32N 46°34' W 004°19'1716.4
2016-Jun-27 22:32N 46°49' W 004°30'1616.4
2016-Jun-27 21:33N 47°03' W 004°41'1616.3
2016-Jun-27 20:33N 47°17' W 004°52'1715.9
2016-Jun-27 19:31N 47°32' W 005°03'1515.7
2016-Jun-27 18:33N 47°45' W 005°14'14012.3
2016-Jun-27 07:12N 49°46' W 003°26'1117.5
2016-Jun-27 06:34N 49°52' W 003°10'1818.1
2016-Jun-27 05:34N 49°59' W 002°45'2118.3
2016-Jun-27 04:24N 50°06' W 002°13'1517.4
2016-Jun-27 03:31N 50°10' W 001°51'3015.2
2016-Jun-27 01:31N 50°18' W 001°05'2813.8
2016-Jun-26 23:28N 50°27' W 000°23'1415.4
2016-Jun-26 22:33N 50°31' W 000°02'1616.5
2016-Jun-26 21:34N 50°35' E 000°24'3416.8
2016-Jun-26 19:31N 50°53' E 001°09'1515.6
2016-Jun-26 18:33N 51°03' E 001°27'1414.3
2016-Jun-26 17:34N 51°12' E 001°45'1514.7
2016-Jun-26 16:34N 51°24' E 001°59'1514.8
2016-Jun-26 15:33N 51°21' E 002°22'1414.4
2016-Jun-26 14:33N 51°22' E 002°45'1615.6
2016-Jun-26 13:33N 51°23' E 003°10'3 3.5
2016-Jun-26 12:33N 51°20' E 003°13'1 0.6
2016-Jun-26 11:33N 51°19' E 003°13'0 0.0
2016-Jun-26 10:33N 51°19' E 003°13'0 0.0
2016-Jun-26 09:33N 51°19' E 003°13'0 0.0
2016-Jun-26 08:33N 51°19' E 003°13'0 0.0
2016-Jun-26 07:33N 51°19' E 003°13'0 0.0
2016-Jun-26 06:33N 51°19' E 003°13'0 0.0
2016-Jun-26 05:33N 51°19' E 003°13'0 0.0
2016-Jun-26 04:33N 51°19' E 003°13'0 0.0
2016-Jun-26 03:33N 51°19' E 003°13'1 0.5
2016-Jun-26 02:33N 51°20' E 003°13'3 2.9
2016-Jun-26 01:34N 51°22' E 003°11'1414.0
2016-Jun-26 00:33N 51°22' E 002°48'9 9.0
2016-Jun-25 23:33N 51°22' E 002°34'9 8.7
2016-Jun-25 22:33N 51°19' E 002°21'9 9.5
2016-Jun-25 21:33N 51°14' E 002°07'8 8.1
2016-Jun-25 20:33N 51°10' E 001°56'8 7.7
2016-Jun-25 19:33N 51°06' E 001°46'9 8.6
2016-Jun-25 18:33N 51°00' E 001°36'9 9.4
2016-Jun-25 17:33N 50°52' E 001°28'10 9.9
2016-Jun-25 16:31N 50°42' E 001°23'39 9.7
2016-Jun-25 12:33N 50°24' E 000°29'1211.7
2016-Jun-25 11:33N 50°21' E 000°12'1111.5
2016-Jun-25 10:33N 50°18' W 000°06'1211.0
2016-Jun-25 09:30N 50°15' W 000°23'1010.3
2016-Jun-25 08:33N 50°12' W 000°38'9 8.9
2016-Jun-25 07:31N 50°10' W 000°52'7 7.7
2016-Jun-25 06:33N 50°08' W 001°03'7 6.8
2016-Jun-25 05:33N 50°06' W 001°13'44 8.1
2016-Jun-25 00:08N 49°55' W 002°19'710.6
2016-Jun-24 23:28N 49°53' W 002°30'1010.6
2016-Jun-24 22:33N 49°51' W 002°44'1010.4
2016-Jun-24 21:33N 49°47' W 002°59'1110.8
2016-Jun-24 20:33N 49°41' W 003°13'79 9.6
2016-Jun-24 12:21N 49°01' W 004°57'810.3
2016-Jun-24 11:34N 48°56' W 005°08'1514.9
2016-Jun-24 10:33N 48°49' W 005°28'10414.4
2016-Jun-24 03:20N 47°10' W 004°39'1616.5
2016-Jun-24 02:23N 46°56' W 004°29'1416.5
2016-Jun-24 01:32N 46°43' W 004°20'1616.3
2016-Jun-24 00:34N 46°29' W 004°10'1716.6
2016-Jun-23 23:33N 46°14' W 003°59'1716.6
2016-Jun-23 22:33N 45°59' W 003°49'16016.0
2016-Jun-23 12:33N 43°36' W 002°06'35 2.8
2016-Jun-23 00:21N 44°07' W 002°29'12015.4
2016-Jun-22 16:33N 45°53' W 003°48'3915.7
2016-Jun-22 14:05N 46°27' W 004°13'2615.6
2016-Jun-22 12:24N 46°50' W 004°31'1315.1
2016-Jun-22 11:33N 47°01' W 004°42'1615.2
2016-Jun-22 10:31N 47°13' W 004°56'1515.1
2016-Jun-22 09:31N 47°26' W 005°08'1616.1
2016-Jun-22 08:32N 47°41' W 005°14'1716.2
2016-Jun-22 07:29N 47°57' W 005°23'1516.2
2016-Jun-22 06:33N 48°11' W 005°33'12212.9
2016-Jun-21 21:04N 49°44' W 003°32'714.3
2016-Jun-21 20:34N 49°47' W 003°23'1413.7
2016-Jun-21 19:34N 49°54' W 003°04'1413.6
2016-Jun-21 18:34N 49°59' W 002°45'1514.4
2016-Jun-21 17:32N 50°04' W 002°23'5617.5
2016-Jun-21 14:20N 50°21' W 000°60'1417.9
2016-Jun-21 13:33N 50°24' W 000°38'1716.8
2016-Jun-21 12:34N 50°29' W 000°13'1515.4
2016-Jun-21 11:33N 50°34' E 000°10'1514.5
2016-Jun-21 10:32N 50°38' E 000°32'3315.3
2016-Jun-21 08:24N 50°57' E 001°14'1618.5
2016-Jun-21 07:33N 51°07' E 001°33'2914.8
2016-Jun-21 05:34N 51°21' E 002°14'1615.7
2016-Jun-21 04:33N 51°23' E 002°39'1514.6
2016-Jun-21 03:33N 51°22' E 003°02'7 6.8
2016-Jun-21 02:33N 51°20' E 003°13'1 0.6
2016-Jun-21 01:33N 51°19' E 003°13'0 0.0
2016-Jun-21 00:33N 51°19' E 003°13'0 0.0
2016-Jun-20 23:33N 51°19' E 003°13'0 0.0
2016-Jun-20 22:32N 51°19' E 003°13'0 0.0
2016-Jun-20 21:32N 51°19' E 003°13'0 0.0
2016-Jun-20 20:32N 51°19' E 003°13'0 0.0
2016-Jun-20 19:29N 51°19' E 003°13'0 0.0
2016-Jun-20 18:32N 51°19' E 003°13'0 0.0
2016-Jun-20 17:32N 51°19' E 003°13'0 0.0
2016-Jun-20 16:32N 51°19' E 003°13'1 0.7
2016-Jun-20 15:33N 51°20' E 003°13'1 1.1
2016-Jun-20 14:33N 51°21' E 003°12'7 7.3
2016-Jun-20 13:33N 51°22' E 003°00'9 8.6
2016-Jun-20 12:33N 51°22' E 002°47'6 6.5
2016-Jun-20 11:33N 51°22' E 002°36'6 6.0
2016-Jun-20 10:33N 51°21' E 002°27'6 6.3
2016-Jun-20 09:33N 51°18' E 002°18'6 5.8
2016-Jun-20 08:33N 51°15' E 002°10'5 5.0
2016-Jun-20 07:33N 51°13' E 002°03'10 9.9
2016-Jun-20 06:34N 51°08' E 001°49'1515.0
2016-Jun-20 05:33N 50°57' E 001°32'1515.0
2016-Jun-20 04:33N 50°44' E 001°22'4214.1
2016-Jun-20 01:33N 50°23' E 000°24'1514.5
2016-Jun-20 00:31N 50°19' E 000°01'1414.8
2016-Jun-19 23:34N 50°15' W 000°20'8917.4
2016-Jun-19 18:26N 49°52' W 002°34'1517.3
2016-Jun-19 17:33N 49°48' W 002°57'1716.8
2016-Jun-19 16:33N 49°39' W 003°19'9116.9
2016-Jun-19 11:09N 48°52' W 005°19'1016.2
2016-Jun-19 10:33N 48°48' W 005°32'4914.3
2016-Jun-19 07:09N 47°60' W 005°17'915.5
2016-Jun-19 06:33N 47°51' W 005°11'1716.1
2016-Jun-19 05:30N 47°36' W 005°00'5115.9
2016-Jun-19 02:16N 46°51' W 004°25'1216.0
2016-Jun-19 01:30N 46°40' W 004°17'  

Dump ship's entire track history